Time;durP1;ratioP1;P1;durP2;ratioP2;P2;SDS_P1;SDS_P2;PMS_P1;PMS_P2;Temp;Humidity;BMP_temperature;BMP_pressure;BME280_temperature;BME280_humidity;BME280_pressure;Samples;Min_cycle;Max_cycle;Signal;HPM_P1;HPM_P2
2022/07/18 00:00:15;;;;;;;4.53;3.53;;;14.60;99.90;;;;;;5054070;28;20493;-50
2022/07/18 00:02:41;;;;;;;7.38;3.47;;;14.60;99.90;;;;;;5053762;28;20128;-50
2022/07/18 00:05:07;;;;;;;5.80;3.42;;;14.50;99.90;;;;;;5054154;28;20060;-50
2022/07/18 00:07:33;;;;;;;5.38;3.22;;;14.50;99.90;;;;;;5054138;28;20052;-50
2022/07/18 00:09:59;;;;;;;6.93;3.20;;;14.50;99.90;;;;;;5054271;28;20458;-50
2022/07/18 00:12:25;;;;;;;5.88;3.38;;;14.50;99.90;;;;;;5053847;28;20211;-50
2022/07/18 00:14:51;;;;;;;5.43;3.10;;;14.50;99.90;;;;;;5054001;28;20100;-50
2022/07/18 00:17:17;;;;;;;5.68;3.45;;;14.50;99.90;;;;;;5053979;28;20546;-50
2022/07/18 00:19:43;;;;;;;4.63;3.20;;;14.40;99.90;;;;;;5053936;28;20029;-50
2022/07/18 00:22:09;;;;;;;7.32;3.35;;;14.30;99.90;;;;;;5053724;28;20078;-50
2022/07/18 00:24:37;;;;;;;3.60;2.97;;;14.30;99.90;;;;;;5053973;28;20055;-50
2022/07/18 00:27:05;;;;;;;8.68;3.47;;;14.30;99.90;;;;;;5053970;28;20048;-50
2022/07/18 00:29:31;;;;;;;5.22;2.85;;;14.20;99.90;;;;;;5053915;28;20023;-50
2022/07/18 00:31:57;;;;;;;5.20;3.30;;;14.20;99.90;;;;;;5053745;28;20029;-50
2022/07/18 00:34:23;;;;;;;10.20;3.03;;;14.10;99.90;;;;;;5053910;28;20043;-50
2022/07/18 00:36:49;;;;;;;9.43;3.33;;;14.10;99.90;;;;;;5053867;28;20029;-50
2022/07/18 00:39:15;;;;;;;6.57;3.22;;;14.10;99.90;;;;;;5053827;28;20083;-50
2022/07/18 00:41:47;;;;;;;7.60;3.35;;;14.20;99.90;;;;;;5054136;28;20105;-50
2022/07/18 00:44:17;;;;;;;6.28;3.42;;;14.20;99.90;;;;;;5057408;28;20021;-50
2022/07/18 00:46:43;;;;;;;6.55;3.60;;;14.10;99.90;;;;;;5057377;28;20429;-50
2022/07/18 00:49:09;;;;;;;6.60;3.65;;;14.00;99.90;;;;;;5057331;28;20029;-50
2022/07/18 00:51:37;;;;;;;6.28;3.72;;;14.00;99.90;;;;;;5057426;28;20033;-50
2022/07/18 00:54:04;;;;;;;6.47;3.75;;;14.00;99.90;;;;;;5057291;28;20036;-50
2022/07/18 00:56:30;;;;;;;12.13;3.83;;;13.90;99.90;;;;;;5057239;28;20040;-50
2022/07/18 00:58:56;;;;;;;5.70;3.25;;;13.90;99.90;;;;;;5057351;28;20051;-50
2022/07/18 01:04:07;;;;;;;6.82;3.53;;;13.80;99.90;;;;;;5057116;28;20086;-50
2022/07/18 01:06:33;;;;;;;4.57;2.83;;;13.80;99.90;;;;;;5057174;28;20057;-50
2022/07/18 01:08:59;;;;;;;6.40;3.08;;;13.60;99.90;;;;;;5057007;28;20028;-50
2022/07/18 01:11:25;;;;;;;6.35;3.20;;;13.60;99.90;;;;;;5056682;28;20529;-50
2022/07/18 01:13:51;;;;;;;6.72;3.88;;;13.40;99.90;;;;;;5057048;28;20040;-50
2022/07/18 01:16:17;;;;;;;6.90;2.88;;;13.40;99.90;;;;;;5056995;28;20036;-50
2022/07/18 01:18:48;;;;;;;6.03;3.00;;;13.40;99.90;;;;;;5056754;28;20025;-50
2022/07/18 01:21:14;;;;;;;4.60;3.20;;;13.50;99.90;;;;;;5056688;28;20037;-50
2022/07/18 01:23:41;;;;;;;5.22;3.03;;;13.40;99.90;;;;;;5056785;28;20021;-50
2022/07/18 01:26:08;;;;;;;5.68;3.63;;;13.30;99.90;;;;;;5056609;28;20091;-50
2022/07/18 01:28:33;;;;;;;5.18;3.33;;;13.30;99.90;;;;;;5056765;28;20387;-50
2022/07/18 01:30:59;;;;;;;6.22;3.17;;;13.30;99.90;;;;;;5056585;28;20043;-50
2022/07/18 01:33:25;;;;;;;4.85;3.33;;;13.20;99.90;;;;;;5056360;28;20029;-50
2022/07/18 01:35:51;;;;;;;7.57;3.70;;;13.10;99.90;;;;;;5056505;28;20039;-50
2022/07/18 01:38:19;;;;;;;5.47;3.45;;;13.10;99.90;;;;;;5056405;28;20037;-50
2022/07/18 01:40:45;;;;;;;6.80;3.53;;;13.10;99.90;;;;;;5056437;28;20041;-50
2022/07/18 01:43:11;;;;;;;6.10;3.08;;;13.20;99.90;;;;;;5056374;28;20475;-50
2022/07/18 01:45:37;;;;;;;8.48;3.17;;;13.10;99.90;;;;;;5056128;28;20040;-50
2022/07/18 01:48:03;;;;;;;5.03;3.03;;;13.20;99.90;;;;;;5056250;28;20057;-50
2022/07/18 01:50:29;;;;;;;5.05;2.90;;;13.20;99.90;;;;;;5056343;28;20386;-50
2022/07/18 01:52:55;;;;;;;7.30;2.67;;;13.20;99.90;;;;;;5055703;28;20033;-50
2022/07/18 01:55:21;;;;;;;6.10;2.53;;;13.20;99.90;;;;;;5055519;28;20044;-50
2022/07/18 01:57:47;;;;;;;6.22;2.45;;;13.10;99.90;;;;;;5056040;28;20033;-50
2022/07/18 02:00:13;;;;;;;3.75;2.38;;;13.10;99.90;;;;;;5056013;28;20036;-50
2022/07/18 02:02:40;;;;;;;5.80;2.95;;;13.10;99.90;;;;;;5056054;28;20032;-50
2022/07/18 02:05:07;;;;;;;4.68;2.63;;;13.10;99.90;;;;;;5055967;28;20029;-50
2022/07/18 02:07:38;;;;;;;4.10;2.17;;;13.00;99.90;;;;;;5055871;28;20037;-50
2022/07/18 02:10:06;;;;;;;2.20;2.00;;;13.00;99.90;;;;;;5055892;28;20025;-50
2022/07/18 02:12:32;;;;;;;4.75;2.30;;;13.10;99.90;;;;;;5055749;28;20167;-50
2022/07/18 02:14:58;;;;;;;2.72;2.05;;;13.00;99.90;;;;;;5055769;28;20052;-50
2022/07/18 02:17:24;;;;;;;3.83;2.33;;;13.00;99.90;;;;;;5055609;28;20394;-50
2022/07/18 02:19:50;;;;;;;3.22;2.40;;;13.00;99.90;;;;;;5055741;28;20033;-50
2022/07/18 02:22:16;;;;;;;4.72;2.70;;;13.00;99.90;;;;;;5055364;28;20021;-50
2022/07/18 02:24:42;;;;;;;4.32;2.75;;;12.90;99.90;;;;;;5055681;28;20386;-50
2022/07/18 02:27:08;;;;;;;5.05;2.90;;;12.90;99.90;;;;;;5055575;28;20469;-50
2022/07/18 02:29:35;;;;;;;6.35;3.10;;;13.00;99.90;;;;;;5055483;28;20021;-50
2022/07/18 02:32:01;;;;;;;5.47;2.97;;;13.00;99.90;;;;;;5055447;28;20033;-50
2022/07/18 02:34:27;;;;;;;7.93;3.10;;;13.00;99.90;;;;;;5055426;28;20029;-50
2022/07/18 02:36:53;;;;;;;5.15;3.10;;;13.00;99.90;;;;;;5055196;28;20549;-50
2022/07/18 02:39:19;;;;;;;5.22;2.50;;;13.00;99.90;;;;;;5055353;28;20148;-50
2022/07/18 02:41:46;;;;;;;5.20;2.30;;;13.00;99.90;;;;;;5055106;28;20082;-50
2022/07/18 02:44:12;;;;;;;7.18;2.42;;;13.00;99.90;;;;;;5055017;28;20032;-50
2022/07/18 02:46:38;;;;;;;4.43;2.58;;;13.00;99.90;;;;;;5055206;28;20122;-50
2022/07/18 02:49:03;;;;;;;4.47;2.70;;;12.90;99.90;;;;;;5055140;28;20054;-50
2022/07/18 02:51:29;;;;;;;6.05;2.92;;;12.90;99.90;;;;;;5054955;28;20039;-50
2022/07/18 02:53:55;;;;;;;10.77;3.15;;;12.90;99.90;;;;;;5055050;28;20041;-50
2022/07/18 02:56:21;;;;;;;19.30;3.92;;;12.90;99.90;;;;;;5054843;28;20029;-50
2022/07/18 02:58:47;;;;;;;7.97;3.83;;;12.80;99.90;;;;;;5054939;28;20461;-50
2022/07/18 03:01:13;;;;;;;9.50;2.80;;;12.70;99.90;;;;;;5037021;28;20045;-50
2022/07/18 03:03:39;;;;;;;6.93;2.95;;;12.60;99.90;;;;;;5054919;28;20112;-50
2022/07/18 03:06:05;;;;;;;6.35;2.95;;;12.60;99.90;;;;;;5054669;28;20423;-50
2022/07/18 03:08:31;;;;;;;5.32;2.90;;;12.60;99.90;;;;;;5054721;28;20025;-50
2022/07/18 03:10:57;;;;;;;10.05;3.90;;;12.50;99.90;;;;;;5054500;28;20102;-50
2022/07/18 03:13:22;;;;;;;6.38;3.60;;;12.40;99.90;;;;;;5054691;28;20037;-50
2022/07/18 03:15:48;;;;;;;3.83;2.60;;;12.40;99.90;;;;;;5054775;28;20032;-50
2022/07/18 03:18:14;;;;;;;4.60;2.55;;;12.40;99.90;;;;;;5054672;28;20048;-50
2022/07/18 03:20:40;;;;;;;4.32;2.67;;;12.30;99.90;;;;;;5054365;28;20094;-50
2022/07/18 03:23:07;;;;;;;4.65;2.72;;;12.30;99.90;;;;;;5036928;28;20049;-50
2022/07/18 03:25:34;;;;;;;5.13;2.47;;;12.20;99.90;;;;;;5054867;28;20025;-50
2022/07/18 03:27:59;;;;;;;12.13;3.22;;;12.30;99.90;;;;;;5054534;28;20509;-50
2022/07/18 03:30:26;;;;;;;6.22;2.33;;;12.30;99.90;;;;;;5054283;28;20041;-50
2022/07/18 03:32:51;;;;;;;5.28;3.00;;;12.30;99.90;;;;;;5054370;28;20036;-50
2022/07/18 03:35:18;;;;;;;3.65;2.63;;;12.30;99.90;;;;;;5054445;28;20021;-50
2022/07/18 03:37:43;;;;;;;4.63;2.70;;;12.20;99.90;;;;;;5054151;28;20040;-50
2022/07/18 03:40:10;;;;;;;7.18;2.63;;;12.20;99.90;;;;;;5054161;28;20387;-50
2022/07/18 03:42:40;;;;;;;4.57;2.55;;;12.20;99.90;;;;;;5054232;28;20029;-50
2022/07/18 03:45:07;;;;;;;5.05;3.22;;;12.10;99.90;;;;;;5054330;28;20052;-50
2022/07/18 03:47:34;;;;;;;4.40;2.67;;;12.20;99.90;;;;;;5053945;28;20043;-50
2022/07/18 03:50:00;;;;;;;4.95;2.28;;;12.20;99.90;;;;;;5054366;28;20382;-50
2022/07/18 03:52:26;;;;;;;2.35;1.75;;;12.20;99.90;;;;;;5054202;28;20025;-50
2022/07/18 03:54:52;;;;;;;2.58;1.80;;;12.20;99.90;;;;;;5053972;28;20485;-50
2022/07/18 03:57:18;;;;;;;5.68;2.55;;;12.30;99.90;;;;;;5054117;28;20028;-50
2022/07/18 03:59:44;;;;;;;6.22;2.70;;;12.30;99.90;;;;;;5054072;28;20325;-50
2022/07/18 04:02:10;;;;;;;5.68;2.67;;;12.20;99.90;;;;;;5053733;28;20067;-50
2022/07/18 04:04:36;;;;;;;7.75;2.53;;;12.20;99.90;;;;;;5054354;28;20025;-50
2022/07/18 04:07:03;;;;;;;9.23;2.50;;;12.30;99.90;;;;;;5053958;28;20044;-50
2022/07/18 04:09:29;;;;;;;8.52;2.63;;;12.30;99.90;;;;;;5053817;28;20051;-50
2022/07/18 04:11:55;;;;;;;5.72;2.83;;;12.40;99.90;;;;;;5054018;28;20052;-50
2022/07/18 04:14:22;;;;;;;6.45;3.03;;;12.50;99.90;;;;;;5054051;28;20066;-50
2022/07/18 04:16:49;;;;;;;5.28;2.58;;;12.50;99.90;;;;;;5054701;28;20489;-50
2022/07/18 04:19:16;;;;;;;5.38;2.45;;;12.70;99.90;;;;;;5057991;28;20036;-50
2022/07/18 04:21:43;;;;;;;6.78;2.90;;;12.80;99.90;;;;;;5057731;28;20037;-50
2022/07/18 04:24:09;;;;;;;7.50;3.30;;;12.80;99.90;;;;;;5057984;28;20052;-50
2022/07/18 04:26:35;;;;;;;12.70;3.22;;;12.90;99.90;;;;;;5057871;28;20439;-50
2022/07/18 04:29:01;;;;;;;4.50;2.53;;;12.90;99.90;;;;;;5057775;28;20118;-50
2022/07/18 04:31:27;;;;;;;7.05;2.75;;;13.00;99.90;;;;;;5057839;28;20035;-50
2022/07/18 04:33:52;;;;;;;10.50;3.80;;;13.00;99.90;;;;;;5057844;28;20081;-50
2022/07/18 04:36:18;;;;;;;12.35;4.40;;;13.10;99.90;;;;;;5057732;28;20045;-50
2022/07/18 04:38:44;;;;;;;13.63;3.90;;;13.20;99.90;;;;;;5057339;28;20029;-50
2022/07/18 04:41:10;;;;;;;14.07;5.28;;;13.30;99.90;;;;;;5057309;28;20386;-50
2022/07/18 04:43:36;;;;;;;11.73;3.33;;;13.40;99.90;;;;;;5057460;28;20024;-50
2022/07/18 04:46:02;;;;;;;15.93;4.18;;;13.40;99.90;;;;;;5057173;28;20501;-50
2022/07/18 04:48:29;;;;;;;17.88;4.88;;;13.60;99.90;;;;;;5057358;28;20032;-50
2022/07/18 04:50:55;;;;;;;20.83;5.13;;;13.60;99.90;;;;;;5057257;28;20025;-50
2022/07/18 04:53:21;;;;;;;22.42;5.38;;;13.70;99.90;;;;;;5057174;28;20033;-50
2022/07/18 04:55:47;;;;;;;17.92;5.95;;;13.90;99.90;;;;;;5057306;28;20025;-50
2022/07/18 04:58:13;;;;;;;22.45;5.95;;;14.00;99.90;;;;;;5056998;28;20505;-50
2022/07/18 05:00:39;;;;;;;22.05;5.32;;;14.00;99.90;;;;;;5057063;28;20038;-50
2022/07/18 05:03:05;;;;;;;13.68;4.82;;;14.20;99.90;;;;;;5057087;28;20085;-50
2022/07/18 05:05:31;;;;;;;14.30;4.32;;;14.20;99.90;;;;;;5056848;28;20029;-50
2022/07/18 05:07:57;;;;;;;12.70;5.20;;;14.40;99.90;;;;;;5056837;28;20032;-51
2022/07/18 05:10:24;;;;;;;11.68;4.75;;;14.60;99.90;;;;;;5056983;28;20103;-51
2022/07/18 05:12:53;;;;;;;13.20;4.90;;;14.70;99.90;;;;;;5047032;28;20162;-51
2022/07/18 05:15:21;;;;;;;16.83;5.00;;;14.80;99.90;;;;;;5041753;28;20033;-50
2022/07/18 05:17:47;;;;;;;19.80;5.50;;;15.00;99.90;;;;;;5044028;28;20024;-50
2022/07/18 05:20:16;;;;;;;18.35;4.45;;;15.00;99.60;;;;;;5048325;28;20044;-51
2022/07/18 05:22:42;;;;;;;17.35;5.85;;;15.20;99.80;;;;;;5047023;28;20037;-51
2022/07/18 05:25:10;;;;;;;24.55;5.65;;;15.30;98.50;;;;;;5056309;28;20032;-50
2022/07/18 05:27:36;;;;;;;18.77;5.22;;;15.40;97.90;;;;;;5055862;28;20036;-51
2022/07/18 05:30:05;;;;;;;14.25;5.25;;;15.40;97.90;;;;;;5056493;28;20493;-50
2022/07/18 05:32:35;;;;;;;17.92;6.13;;;15.60;96.90;;;;;;5053401;28;20040;-51
2022/07/18 05:35:03;;;;;;;26.92;6.30;;;15.70;96.80;;;;;;5047417;28;20047;-50
2022/07/18 05:37:35;;;;;;;17.20;5.00;;;15.70;96.70;;;;;;5049356;28;20394;-51
2022/07/18 05:40:08;;;;;;;21.33;4.95;;;15.90;96.70;;;;;;5038402;28;20344;-50
2022/07/18 05:42:35;;;;;;;19.95;5.25;;;16.10;96.50;;;;;;5052249;28;20052;-50
2022/07/18 05:45:02;;;;;;;19.45;5.68;;;16.20;95.40;;;;;;5052221;28;20489;-51
2022/07/18 05:47:28;;;;;;;23.45;4.68;;;16.30;94.80;;;;;;5056090;28;20029;-50
2022/07/18 05:49:54;;;;;;;19.67;5.40;;;16.50;93.90;;;;;;5054213;28;20641;-51
2022/07/18 05:52:20;;;;;;;12.15;5.15;;;16.70;94.30;;;;;;5053270;28;20121;-51
2022/07/18 05:54:46;;;;;;;18.60;5.97;;;16.70;93.20;;;;;;5045530;28;20033;-51
2022/07/18 05:57:12;;;;;;;13.82;5.30;;;16.80;92.90;;;;;;5045963;28;20083;-51
2022/07/18 05:59:38;;;;;;;20.00;7.07;;;16.80;91.80;;;;;;5047206;28;20032;-51
2022/07/18 06:02:03;;;;;;;13.00;5.68;;;17.00;92.40;;;;;;5055029;28;20036;-51
2022/07/18 06:04:29;;;;;;;10.50;5.05;;;17.10;91.50;;;;;;5055641;28;20025;-51
2022/07/18 06:06:55;;;;;;;10.50;4.30;;;17.30;91.60;;;;;;5055339;28;20025;-51
2022/07/18 06:09:21;;;;;;;22.48;6.80;;;17.40;91.50;;;;;;5055700;28;20120;-51
2022/07/18 06:11:47;;;;;;;34.85;8.07;;;17.60;90.40;;;;;;5051384;28;20045;-51
2022/07/18 06:14:13;;;;;;;19.10;6.10;;;17.70;88.40;;;;;;5039289;28;20036;-51
2022/07/18 06:16:39;;;;;;;14.30;4.97;;;17.80;88.00;;;;;;5040748;28;20530;-51
2022/07/18 06:19:05;;;;;;;16.08;5.80;;;18.00;86.70;;;;;;5041913;28;20044;-51
2022/07/18 06:21:31;;;;;;;22.25;5.85;;;18.20;86.70;;;;;;5047428;28;20079;-51
2022/07/18 06:23:57;;;;;;;7.88;4.72;;;18.30;82.30;;;;;;5048192;28;20029;-51
2022/07/18 06:26:23;;;;;;;12.38;4.40;;;18.30;80.40;;;;;;5054595;28;20362;-51
2022/07/18 06:28:49;;;;;;;11.25;4.57;;;18.50;79.60;;;;;;5053695;28;20051;-51
2022/07/18 06:31:16;;;;;;;16.10;5.82;;;18.70;79.80;;;;;;5051465;28;20482;-51
2022/07/18 06:33:42;;;;;;;15.75;4.45;;;18.80;78.10;;;;;;5054506;28;20054;-51
2022/07/18 06:36:11;;;;;;;10.65;4.38;;;19.00;76.30;;;;;;5040238;28;20466;-51
2022/07/18 06:38:38;;;;;;;13.75;4.88;;;19.20;76.10;;;;;;5052955;28;20057;-51
2022/07/18 06:41:08;;;;;;;12.93;5.63;;;19.40;77.20;;;;;;5051673;28;20021;-51
2022/07/18 06:43:36;;;;;;;13.63;4.20;;;19.50;73.20;;;;;;5035158;28;20378;-51
2022/07/18 06:46:01;;;;;;;12.45;4.53;;;19.70;72.70;;;;;;5037680;28;20079;-51
2022/07/18 06:48:32;;;;;;;9.93;3.78;;;19.90;70.20;;;;;;5042734;28;20017;-51
2022/07/18 06:50:59;;;;;;;17.45;3.88;;;20.10;68.30;;;;;;5054110;28;20029;-51
2022/07/18 06:53:27;;;;;;;13.57;3.85;;;20.40;67.10;;;;;;5055253;28;20063;-51
2022/07/18 06:55:54;;;;;;;14.25;4.28;;;20.50;65.70;;;;;;5054608;28;20486;-51
2022/07/18 06:58:20;;;;;;;21.42;5.35;;;20.80;65.00;;;;;;5053606;28;20470;-51
2022/07/18 07:00:46;;;;;;;22.65;5.32;;;20.90;64.70;;;;;;5042796;28;20094;-51
2022/07/18 07:03:12;;;;;;;20.00;4.57;;;21.20;64.30;;;;;;5054344;28;20072;-51
2022/07/18 07:05:38;;;;;;;19.42;4.85;;;21.50;62.80;;;;;;5051413;28;20025;-51
2022/07/18 07:08:04;;;;;;;23.42;5.90;;;21.80;62.40;;;;;;5054578;28;20029;-51
2022/07/18 07:10:31;;;;;;;22.67;4.85;;;22.10;60.60;;;;;;5041719;28;20032;-51
2022/07/18 07:12:57;;;;;;;18.83;5.15;;;22.20;60.40;;;;;;5034807;28;20104;-51
2022/07/18 07:15:26;;;;;;;32.08;6.78;;;22.40;59.20;;;;;;5034574;28;20471;-51
2022/07/18 07:17:55;;;;;;;18.23;5.15;;;22.70;58.20;;;;;;5034087;28;20065;-51
2022/07/18 07:20:21;;;;;;;22.15;4.72;;;22.90;58.50;;;;;;5033428;28;20079;-52
2022/07/18 07:22:53;;;;;;;36.25;6.82;;;23.30;57.60;;;;;;5037923;28;20509;-51
2022/07/18 07:25:20;;;;;;;19.98;4.75;;;23.60;56.80;;;;;;5042384;28;20115;-51
2022/07/18 07:27:46;;;;;;;21.02;6.18;;;24.00;56.00;;;;;;5053819;28;20025;-51
2022/07/18 07:30:13;;;;;;;19.55;5.32;;;24.30;55.90;;;;;;5054433;28;20467;-51
2022/07/18 07:32:44;;;;;;;14.93;4.55;;;24.70;55.50;;;;;;5052760;28;20040;-51
2022/07/18 07:35:12;;;;;;;15.20;5.07;;;24.90;53.80;;;;;;5054380;28;20035;-51
2022/07/18 07:37:40;;;;;;;26.17;5.63;;;25.10;53.40;;;;;;5035539;28;20026;-51
2022/07/18 07:40:09;;;;;;;19.20;4.80;;;25.40;52.00;;;;;;5053333;28;20026;-51
2022/07/18 07:42:37;;;;;;;14.43;4.80;;;25.70;51.50;;;;;;5053950;28;20036;-51
2022/07/18 07:45:04;;;;;;;11.50;4.30;;;26.20;51.80;;;;;;5053757;28;20057;-51
2022/07/18 07:47:30;;;;;;;16.92;3.97;;;26.50;49.40;;;;;;5048828;28;20022;-52
2022/07/18 07:49:57;;;;;;;23.52;5.97;;;26.60;48.90;;;;;;5047959;28;20082;-52
2022/07/18 07:52:23;;;;;;;17.70;5.70;;;26.80;47.70;;;;;;5046854;28;20394;-52
2022/07/18 07:55:06;;;;;;;18.23;4.88;;;27.00;47.00;;;;;;5055894;28;20497;-52
2022/07/18 07:57:36;;;;;;;15.98;3.85;;;27.20;46.30;;;;;;5056964;28;20029;-51
2022/07/18 08:00:07;;;;;;;16.42;4.60;;;27.40;45.50;;;;;;5057998;28;20025;-52
2022/07/18 08:02:55;;;;;;;;;;;27.30;44.30;;;;;;5016102;28;20048;-51
2022/07/18 08:05:22;;;;;;;20.15;5.07;;;27.40;44.80;;;;;;5015435;28;19913;-52
2022/07/18 08:07:53;;;;;;;14.85;4.80;;;27.50;45.10;;;;;;5012650;28;20392;-52
2022/07/18 08:10:20;;;;;;;16.95;4.63;;;27.60;43.60;;;;;;5012370;28;20046;-53
2022/07/18 08:12:46;;;;;;;12.73;3.90;;;27.00;44.20;;;;;;5035566;28;20128;-52
2022/07/18 08:15:12;;;;;;;22.30;5.30;;;27.60;45.50;;;;;;5032902;28;20797;-52
2022/07/18 08:17:38;;;;;;;17.85;4.38;;;27.70;43.10;;;;;;5032541;28;20422;-52
2022/07/18 08:20:05;;;;;;;15.85;4.55;;;27.80;43.30;;;;;;5028026;28;20046;-52
2022/07/18 08:22:34;;;;;;;16.65;4.25;;;28.40;41.50;;;;;;5027656;28;20052;-52
2022/07/18 08:25:02;;;;;;;11.95;3.83;;;28.70;41.00;;;;;;5033628;28;20502;-52
2022/07/18 08:27:31;;;;;;;;;;;29.00;40.40;;;;;;5024708;28;20026;-52
2022/07/18 08:29:59;;;;;;;26.83;4.75;;;29.00;37.70;;;;;;5021990;28;19920;-52
2022/07/18 08:32:25;;;;;;;16.67;3.83;;;29.10;40.50;;;;;;5032953;28;20025;-52
2022/07/18 08:34:52;;;;;;;7.57;2.25;;;29.80;38.70;;;;;;5047029;28;20037;-52
2022/07/18 08:37:19;;;;;;;8.65;2.90;;;30.20;34.10;;;;;;5054129;28;20023;-52
2022/07/18 08:39:44;;;;;;;4.78;1.83;;;30.20;32.90;;;;;;5046905;28;20021;-52
2022/07/18 08:42:11;;;;;;;13.15;3.38;;;30.30;32.30;;;;;;5041801;28;20041;-52
2022/07/18 08:44:40;;;;;;;11.45;3.25;;;30.40;32.70;;;;;;5045203;28;20030;-52
2022/07/18 08:47:07;;;;;;;17.08;3.85;;;30.60;32.90;;;;;;5056870;28;20147;-52
2022/07/18 08:49:35;;;;;;;7.68;2.45;;;30.70;31.90;;;;;;5050795;28;20028;-52
2022/07/18 08:52:01;;;;;;;9.50;2.10;;;30.70;29.90;;;;;;5053545;28;20031;-52
2022/07/18 08:54:28;;;;;;;9.65;2.35;;;31.10;29.90;;;;;;5043220;28;20037;-52
2022/07/18 08:56:53;;;;;;;10.20;2.17;;;31.00;30.20;;;;;;5051730;28;20033;-52
2022/07/18 08:59:19;;;;;;;7.13;2.42;;;29.70;28.70;;;;;;5051975;28;20043;-52
2022/07/18 09:01:45;;;;;;;6.05;2.03;;;30.40;28.50;;;;;;5042476;28;20037;-52
2022/07/18 09:04:19;;;;;;;7.72;2.70;;;30.60;27.80;;;;;;5046206;28;20124;-52
2022/07/18 09:06:49;;;;;;;6.10;1.90;;;30.80;27.40;;;;;;5048341;28;20063;-52
2022/07/18 09:09:17;;;;;;;4.57;1.92;;;30.80;27.40;;;;;;5052359;28;20053;-52
2022/07/18 09:11:58;;;;;;;3.00;1.17;;;31.50;27.00;;;;;;5053216;28;20053;-52
2022/07/18 09:14:45;;;;;;;9.25;1.40;;;31.90;27.50;;;;;;5043482;28;20036;-52
2022/07/18 09:17:12;;;;;;;2.20;1.38;;;32.00;24.70;;;;;;5049801;28;20043;-52
2022/07/18 09:19:56;;;;;;;3.95;1.45;;;31.90;24.90;;;;;;5045947;28;20606;-52
2022/07/18 09:22:24;;;;;;;2.08;1.60;;;31.90;26.00;;;;;;5042161;28;20029;-52
2022/07/18 09:24:56;;;;;;;4.88;1.33;;;32.40;25.80;;;;;;5044313;28;20025;-52
2022/07/18 09:27:43;;;;;;;4.78;1.77;;;32.40;24.30;;;;;;5051925;28;20029;-52
2022/07/18 09:30:28;;;;;;;3.17;1.42;;;32.80;24.70;;;;;;5040544;28;20033;-52
2022/07/18 09:33:03;;;;;;;4.50;1.50;;;31.50;25.40;;;;;;5045606;28;20390;-52
2022/07/18 09:35:32;;;;;;;6.18;2.38;;;32.30;25.20;;;;;;5047905;28;20025;-52
2022/07/18 09:37:58;;;;;;;5.43;1.50;;;31.80;24.90;;;;;;5044336;28;20103;-52
2022/07/18 09:40:27;;;;;;;6.22;1.80;;;32.00;23.90;;;;;;5041217;28;20101;-52
2022/07/18 09:42:59;;;;;;;5.40;1.40;;;32.40;25.70;;;;;;5044723;28;20021;-52
2022/07/18 09:45:34;;;;;;;5.13;2.00;;;31.60;24.30;;;;;;5055959;28;20107;-52
2022/07/18 09:48:16;;;;;;;2.28;1.50;;;31.40;24.50;;;;;;5055205;28;20112;-52
2022/07/18 09:50:55;;;;;;;9.50;1.92;;;30.80;24.70;;;;;;5042701;28;20060;-52
2022/07/18 09:53:26;;;;;;;5.80;2.53;;;31.70;25.30;;;;;;5055775;28;20025;-52
2022/07/18 09:55:59;;;;;;;4.30;1.38;;;31.70;25.00;;;;;;5056105;28;20071;-52
2022/07/18 09:58:34;;;;;;;6.47;2.17;;;31.80;26.30;;;;;;5055114;28;20040;-52
2022/07/18 10:01:02;;;;;;;3.47;1.17;;;32.70;25.40;;;;;;5054821;28;20128;-53
2022/07/18 10:03:32;;;;;;;14.85;3.58;;;33.00;25.10;;;;;;5043334;28;20032;-52
2022/07/18 10:05:59;;;;;;;7.28;1.42;;;32.90;24.40;;;;;;5024058;28;20028;-52
2022/07/18 10:08:33;;;;;;;12.85;2.75;;;33.30;25.50;;;;;;5050642;28;20032;-52
2022/07/18 10:11:01;;;;;;;3.10;1.48;;;33.40;24.40;;;;;;5035654;28;20128;-52
2022/07/18 10:13:29;;;;;;;7.22;1.40;;;33.50;24.50;;;;;;5039290;28;20023;-52
2022/07/18 10:15:56;;;;;;;10.88;1.92;;;33.60;25.70;;;;;;5051801;28;20478;-52
2022/07/18 10:18:26;;;;;;;5.95;2.30;;;33.40;22.60;;;;;;5043373;28;20440;-53
2022/07/18 10:20:57;;;;;;;5.57;2.13;;;32.20;22.90;;;;;;5048000;28;20045;-52
2022/07/18 10:23:29;;;;;;;7.22;2.60;;;32.40;25.40;;;;;;5046973;28;20025;-53
2022/07/18 10:26:10;;;;;;;5.32;1.63;;;32.50;24.20;;;;;;5047592;28;20311;-52
2022/07/18 10:28:56;;;;;;;9.40;3.30;;;32.20;23.40;;;;;;5045068;28;20153;-52
2022/07/18 10:31:30;;;;;;;23.42;3.63;;;32.30;24.50;;;;;;5051205;28;20421;-52
2022/07/18 10:34:09;;;;;;;6.43;2.20;;;32.90;23.30;;;;;;5043312;28;20043;-52
2022/07/18 10:37:02;;;;;;;5.80;2.25;;;32.70;23.10;;;;;;5054285;28;20036;-52
2022/07/18 10:39:38;;;;;;;9.32;1.95;;;33.60;24.40;;;;;;5043540;28;20044;-52
2022/07/18 10:42:10;;;;;;;3.20;1.58;;;34.30;24.00;;;;;;5050529;28;20035;-52
2022/07/18 10:44:40;;;;;;;3.83;1.70;;;34.50;23.40;;;;;;5053122;28;20025;-52
2022/07/18 10:47:08;;;;;;;3.28;1.73;;;34.30;22.50;;;;;;5048722;28;20119;-52
2022/07/18 10:50:04;;;;;;;4.93;1.95;;;34.20;23.40;;;;;;5047060;28;20064;-52
2022/07/18 10:52:30;;;;;;;7.70;2.55;;;32.80;22.90;;;;;;5036263;28;20091;-52
2022/07/18 10:55:05;;;;;;;9.50;2.53;;;32.30;24.10;;;;;;5051826;28;20087;-52
2022/07/18 10:58:06;;;;;;;6.70;2.58;;;33.60;24.30;;;;;;5047427;28;20028;-52
2022/07/18 11:00:38;;;;;;;7.47;1.70;;;34.40;23.90;;;;;;5042197;28;20033;-52
2022/07/18 11:03:08;;;;;;;6.10;1.95;;;34.00;21.80;;;;;;5054113;28;20025;-52
2022/07/18 11:05:52;;;;;;;7.60;2.58;;;33.20;23.20;;;;;;5051202;28;20021;-52
2022/07/18 11:08:19;;;;;;;20.83;4.72;;;33.90;24.80;;;;;;5039804;28;20021;-52
2022/07/18 11:10:46;;;;;;;2.67;1.52;;;33.00;24.40;;;;;;5034566;28;20045;-52
2022/07/18 11:13:27;;;;;;;5.78;2.05;;;32.10;23.50;;;;;;5038781;28;20098;-52
2022/07/18 11:16:04;;;;;;;5.38;2.42;;;32.30;23.50;;;;;;5044238;28;20037;-52
2022/07/18 11:18:32;;;;;;;8.98;2.20;;;31.30;24.20;;;;;;5039570;28;20170;-52
2022/07/18 11:20:58;;;;;;;8.60;2.53;;;30.50;24.90;;;;;;5041694;28;20033;-52
2022/07/18 11:23:26;;;;;;;7.35;2.40;;;29.90;25.90;;;;;;5047142;28;20029;-52
2022/07/18 11:25:57;;;;;;;4.25;2.40;;;30.40;26.00;;;;;;5054143;28;20378;-52
2022/07/18 11:28:25;;;;;;;6.20;2.53;;;31.00;25.80;;;;;;5048276;28;20021;-52
2022/07/18 11:31:05;;;;;;;5.35;1.90;;;32.30;24.90;;;;;;5054277;28;20032;-52
2022/07/18 11:33:33;;;;;;;5.38;1.90;;;33.20;24.50;;;;;;5053860;28;20078;-52
2022/07/18 11:36:19;;;;;;;8.50;2.47;;;33.90;25.60;;;;;;5054224;28;20378;-52
2022/07/18 11:38:57;;;;;;;6.07;2.00;;;34.00;22.40;;;;;;5047038;28;20106;-52
2022/07/18 11:41:24;;;;;;;4.70;1.90;;;33.10;22.80;;;;;;5053110;28;20047;-53
2022/07/18 11:43:53;;;;;;;4.20;1.80;;;32.80;22.60;;;;;;5045457;28;20073;-52
2022/07/18 11:46:39;;;;;;;6.75;2.00;;;33.20;23.30;;;;;;5054002;28;20024;-52
2022/07/18 11:49:14;;;;;;;7.78;2.75;;;33.50;23.10;;;;;;5034016;28;20030;-52
2022/07/18 11:51:43;;;;;;;7.65;1.60;;;33.70;22.60;;;;;;5034928;28;20033;-52
2022/07/18 11:54:11;;;;;;;3.28;2.00;;;33.30;24.50;;;;;;5040475;28;20035;-52
2022/07/18 11:56:51;;;;;;;4.40;1.80;;;33.70;23.20;;;;;;5051889;28;20033;-52
2022/07/18 11:59:17;;;;;;;7.75;2.13;;;33.80;22.10;;;;;;5042403;28;20179;-52
2022/07/18 12:01:44;;;;;;;3.42;1.40;;;33.80;22.80;;;;;;5023111;28;20100;-52
2022/07/18 12:04:19;;;;;;;5.65;1.80;;;34.00;22.80;;;;;;5046630;28;20065;-52
2022/07/18 12:06:45;;;;;;;4.55;1.77;;;34.50;23.20;;;;;;5044304;28;20360;-52
2022/07/18 12:09:12;;;;;;;8.57;2.00;;;34.90;23.50;;;;;;5045256;28;20028;-52
2022/07/18 12:11:40;;;;;;;5.40;1.90;;;35.10;23.00;;;;;;5042739;28;20580;-52
2022/07/18 12:14:09;;;;;;;5.68;1.77;;;35.10;23.20;;;;;;5045873;28;20116;-52
2022/07/18 12:16:49;;;;;;;8.48;2.65;;;34.70;20.70;;;;;;5048947;28;20498;-53
2022/07/18 12:19:17;;;;;;;5.45;2.00;;;32.60;22.40;;;;;;5026194;28;20047;-52
2022/07/18 12:21:47;;;;;;;3.65;1.40;;;33.60;22.40;;;;;;5047507;28;20037;-52
2022/07/18 12:24:23;;;;;;;6.55;1.98;;;34.00;22.00;;;;;;5042689;28;20025;-52
2022/07/18 12:27:18;;;;;;;8.43;2.20;;;34.30;22.00;;;;;;5040898;28;20029;-53
2022/07/18 12:29:58;;;;;;;14.15;3.10;;;34.10;22.40;;;;;;5040977;28;20017;-52
2022/07/18 12:36:09;;;;;;;3.15;1.50;;;34.60;22.20;;;;;;5048093;28;20395;-53
2022/07/18 12:38:38;;;;;;;5.80;2.00;;;33.50;20.50;;;;;;5049139;28;20033;-53
2022/07/18 12:41:04;;;;;;;2.35;1.23;;;32.10;23.10;;;;;;5047851;28;20056;-52
2022/07/18 12:43:33;;;;;;;7.75;1.60;;;33.60;23.30;;;;;;5045391;28;20580;-52
2022/07/18 12:46:01;;;;;;;2.55;1.40;;;34.20;22.50;;;;;;5049999;28;20035;-52
2022/07/18 12:48:29;;;;;;;5.65;1.88;;;34.90;22.50;;;;;;5047439;28;20490;-53
2022/07/18 12:51:03;;;;;;;3.88;1.10;;;33.50;20.80;;;;;;5053026;28;20084;-52
2022/07/18 12:53:51;;;;;;;;;;;;;;;;;;;;;
2022/07/18 12:56:21;;;;;;;3.08;1.27;;;34.00;20.50;;;;;;5054835;28;20402;-52
2022/07/18 12:59:13;;;;;;;2.70;1.10;;;34.40;21.10;;;;;;5042519;28;20033;-52